Seminole, TX

4:27 AM CDT on July 31, 2014 (GMT -0500)
Seminole (KGNC) Elev 3314 ft | 32.68 °N, 102.65 °W | Change Station

Current weather conditions updated 12 minutes ago

Overcast
Overcast
69 °F
Feels Like 69 °F
N
12
Wind Variable Wind from NNE
Gusts 18 mph

Today is forecast to be Much Cooler than yesterday.

Today
High -- | Low -- °F
--% Chance of Precip.
Yesterday
High -- | Low -- °F
Precip. -- in
7:03 AM 8:49 PM
Waxing Crescent, 17% visible
Pressure 30.16 in
Visibility 10.0 miles
Clouds Overcast 1900 ft
Dew Point 61 °F
Humidity 75%
Rainfall 0.00 in
Snow Depth Not available.
UV 0 out of 12
Pollen 5.50 out of 12
Air Quality Not available.
Flu Activity Not available.
METAR KGNC 310915Z AUTO 03010G16KT 10SM OVC019 21/16 A3016 RMK AO2 T02050159

More Conditions Fewer Conditions

Pressure 30.16 in
Visibility 10.0 miles
Clouds Overcast 1900 ft
Dew Point 61 °F
Humidity 75%
Rainfall 0.00 in
Snow Depth Not available.
UV 0 out of 12
Pollen 5.50 out of 12
Air Quality Not available.
Flu Activity Not available.
METAR KGNC 310915Z AUTO 03010G16KT 10SM OVC019 21/16 A3016 RMK AO2 T02050159

More Conditions Fewer Conditions

10-Day Weather Forecast

Almanac

Astronomy

Jul. 31, 2014 Rise Set
Actual Time 7:03 AM CDT 8:49 PM CDT
Civil Twilight 6:37 AM CDT 9:16 PM CDT
Nautical Twilight 6:04 AM CDT 9:48 PM CDT
Astronomical Twilight 5:30 AM CDT 10:23 PM CDT
Moon 11:15 AM CDT 11:22 PM CDT
Length of Visible Light 14h 39m
Length of Day
13h 45m
Tomorrow will be 1m 29s shorter.
Waxing Crescent, 17% of the Moon is Illuminated
Today
Waxing Crescent
Aug 3
First Quarter
Aug 10
Full
Aug 17
Last Quarter
Aug 25
New

Today's Extremes

State Highs State Lows

Community

WunderPhotos

Upload Photos

1,739,284 photos uploaded!

Nearby

Snow Depth

Station Depth Elevation
No new snow has been reported.

Earthquake Activity

City Distance Mag. Time & Date
No recent earthquake activity has been reported nearby.
Minimum magnitude displayed is 2.5.

Coastal Water Temperatures

Place Temperature
No Stations Reporting

Nearby Weather Stations

Station Location Temp. Heat Index Dew Point Humidity Wind Precip. Elev Updated Type
SW Seminole, Seminole, TX 70.2 °F 77 °F 49 °F 47% North  at  10.7 mph 0.00 in / hr 3320 ft 4:27 AM CDT Rapid Fire
WT_Meso Seminole 2N, Seminole, TX 69 °F - 60 °F 76% NNE  at  14 mph 0.00 in / hr 3312 ft 3:25 AM CDT MADIS
WT_Meso Seagraves 1SW, Seagraves, TX 68 °F - 61 °F 80% NNE  at  14 mph 0.00 in / hr 3359 ft 3:25 AM CDT MADIS
Near Hospital - Andrews, Andrews, TX 69.6 °F - 20 °F 15% NE  at  7.4 mph 0.00 in / hr 3178 ft 4:26 AM CDT Rapid Fire

Show More Stations Show Fewer Stations